Time;durP1;ratioP1;P1;durP2;ratioP2;P2;SDS_P1;SDS_P2;PMS_P1;PMS_P2;Temp;Humidity;BMP_temperature;BMP_pressure;BME280_temperature;BME280_humidity;BME280_pressure;Samples;Min_cycle;Max_cycle;Signal;HPM_P1;HPM_P2
2024/01/22 00:01:18;;;;;;;11.55;7.03;;;6.80;99.90;;;;;;4864842;29;20636;-76
2024/01/22 00:03:44;;;;;;;16.45;7.07;;;6.80;99.90;;;;;;4864607;29;20124;-76
2024/01/22 00:06:09;;;;;;;14.18;7.43;;;6.80;99.90;;;;;;4864556;29;20044;-76
2024/01/22 00:08:35;;;;;;;13.10;8.00;;;6.80;99.90;;;;;;4881249;29;20048;-76
2024/01/22 00:11:02;;;;;;;14.40;8.75;;;6.90;99.90;;;;;;4864153;29;20393;-76
2024/01/22 00:13:28;;;;;;;13.65;8.38;;;6.90;99.90;;;;;;4864225;29;20088;-76
2024/01/22 00:15:54;;;;;;;14.02;7.68;;;6.90;99.90;;;;;;4864532;29;20087;-76
2024/01/22 00:18:19;;;;;;;17.10;8.30;;;7.00;99.90;;;;;;4864232;29;20057;-76
2024/01/22 00:20:45;;;;;;;12.38;6.78;;;6.90;99.90;;;;;;4864307;29;20045;-76
2024/01/22 00:23:10;;;;;;;13.43;7.65;;;6.90;99.90;;;;;;4864501;29;20059;-76
2024/01/22 00:25:36;;;;;;;14.77;6.88;;;7.00;99.90;;;;;;4864097;29;20100;-76
2024/01/22 00:28:02;;;;;;;13.38;7.63;;;7.00;99.90;;;;;;4864311;29;20140;-76
2024/01/22 00:30:28;;;;;;;11.88;6.63;;;7.00;99.90;;;;;;4880699;29;20478;-77
2024/01/22 00:32:53;;;;;;;16.70;8.75;;;7.00;99.90;;;;;;4864273;29;20067;-76
2024/01/22 00:35:20;;;;;;;11.88;7.05;;;7.00;99.90;;;;;;4864252;29;20049;-76
2024/01/22 00:37:46;;;;;;;13.60;6.97;;;7.00;99.90;;;;;;4863920;29;20494;-76
2024/01/22 00:40:11;;;;;;;11.30;6.80;;;7.10;99.90;;;;;;4863853;29;20170;-76
2024/01/22 00:42:37;;;;;;;12.88;7.05;;;7.20;99.90;;;;;;4863951;29;20049;-76
2024/01/22 00:45:03;;;;;;;12.68;5.65;;;7.20;99.90;;;;;;4863904;29;20045;-76
2024/01/22 00:47:28;;;;;;;14.50;7.90;;;7.20;99.90;;;;;;4863969;29;20537;-76
2024/01/22 00:49:54;;;;;;;16.90;7.32;;;7.20;99.90;;;;;;4864053;29;20052;-76
2024/01/22 00:52:19;;;;;;;11.98;6.80;;;7.30;99.90;;;;;;4863764;29;20049;-76
2024/01/22 00:54:45;;;;;;;14.98;7.05;;;7.20;99.90;;;;;;4863519;29;20520;-76
2024/01/22 00:57:11;;;;;;;11.98;6.57;;;7.30;99.90;;;;;;4863686;29;20049;-76
2024/01/22 00:59:45;;;;;;;10.93;6.32;;;7.30;99.90;;;;;;4863779;29;20460;-77
2024/01/22 01:02:20;;;;;;;14.40;7.97;;;7.20;99.90;;;;;;4863635;29;20045;-77
2024/01/22 01:04:46;;;;;;;12.50;6.18;;;7.30;99.90;;;;;;4863660;29;20052;-77
2024/01/22 01:07:12;;;;;;;14.07;8.68;;;7.30;99.90;;;;;;4863614;29;20128;-77
2024/01/22 01:09:42;;;;;;;13.05;7.95;;;7.30;99.90;;;;;;4863337;29;20486;-76
2024/01/22 01:12:08;;;;;;;13.25;6.80;;;7.20;99.90;;;;;;4863408;29;20417;-75
2024/01/22 01:14:33;;;;;;;15.93;7.75;;;7.30;99.90;;;;;;4863359;29;20477;-75
2024/01/22 01:16:59;;;;;;;14.15;8.30;;;7.20;99.90;;;;;;4863373;29;20049;-75
2024/01/22 01:19:24;;;;;;;17.60;7.72;;;7.20;99.90;;;;;;4863239;29;20053;-75
2024/01/22 01:21:50;;;;;;;15.88;7.28;;;7.20;99.90;;;;;;4862870;29;20082;-75
2024/01/22 01:24:16;;;;;;;16.73;7.35;;;7.20;99.90;;;;;;4863249;29;20057;-75
2024/01/22 01:26:42;;;;;;;14.75;7.78;;;7.20;99.90;;;;;;4863251;29;20493;-76
2024/01/22 01:29:08;;;;;;;12.80;6.57;;;7.30;99.90;;;;;;4863269;29;20061;-76
2024/01/22 01:31:35;;;;;;;16.92;8.50;;;7.30;99.90;;;;;;4863401;29;20144;-75
2024/01/22 01:34:01;;;;;;;14.50;7.95;;;7.30;99.90;;;;;;4862946;29;20053;-76
2024/01/22 01:36:26;;;;;;;14.55;7.10;;;7.30;99.90;;;;;;4863049;29;20049;-76
2024/01/22 01:38:58;;;;;;;13.85;7.38;;;7.30;99.90;;;;;;4863026;29;20053;-76
2024/01/22 01:41:24;;;;;;;12.60;7.15;;;7.40;99.90;;;;;;4862968;29;20049;-76
2024/01/22 01:43:49;;;;;;;12.02;7.20;;;7.50;99.90;;;;;;4863332;29;20064;-76
2024/01/22 01:46:15;;;;;;;15.30;6.47;;;7.50;99.90;;;;;;4863186;29;20430;-76
2024/01/22 01:48:41;;;;;;;15.77;8.25;;;7.50;99.90;;;;;;4847985;29;20080;-75
2024/01/22 01:51:08;;;;;;;16.52;7.70;;;7.50;99.90;;;;;;4862904;29;20397;-76
2024/01/22 01:53:34;;;;;;;16.85;7.72;;;7.60;99.90;;;;;;4863204;29;20071;-76
2024/01/22 01:56:00;;;;;;;12.50;7.72;;;7.60;99.90;;;;;;4864820;29;20056;-76
2024/01/22 01:58:26;;;;;;;14.10;7.55;;;7.70;99.90;;;;;;4866744;29;20063;-76
2024/01/22 02:00:56;;;;;;;15.75;7.47;;;7.70;99.90;;;;;;4866857;29;20049;-76
2024/01/22 02:03:22;;;;;;;12.25;7.50;;;7.70;99.90;;;;;;4866689;29;20045;-76
2024/01/22 02:05:47;;;;;;;13.27;6.65;;;7.80;99.90;;;;;;4866796;29;20049;-76
2024/01/22 02:08:13;;;;;;;13.95;7.68;;;7.80;99.90;;;;;;4866721;29;20108;-76
2024/01/22 02:10:40;;;;;;;15.07;7.93;;;7.90;99.90;;;;;;4866421;29;20532;-76
2024/01/22 02:13:09;;;;;;;16.75;7.10;;;7.90;99.90;;;;;;4866477;29;20057;-76
2024/01/22 02:15:34;;;;;;;15.60;6.30;;;7.90;99.90;;;;;;4866359;29;20389;-76
2024/01/22 02:18:01;;;;;;;10.90;6.38;;;8.00;99.90;;;;;;4866396;29;20064;-75
2024/01/22 02:20:27;;;;;;;12.98;7.43;;;8.00;99.90;;;;;;4866223;29;20128;-76
2024/01/22 02:22:52;;;;;;;12.73;7.35;;;8.10;99.90;;;;;;4866600;29;20049;-75
2024/01/22 02:25:18;;;;;;;12.38;6.47;;;8.10;99.90;;;;;;4866389;29;20477;-75
2024/01/22 02:27:44;;;;;;;11.88;6.88;;;8.20;99.90;;;;;;4866585;29;20045;-75
2024/01/22 02:30:10;;;;;;;13.68;8.32;;;8.20;99.90;;;;;;4866945;29;20408;-75
2024/01/22 02:32:36;;;;;;;14.35;7.13;;;8.20;99.90;;;;;;4866588;29;20392;-75
2024/01/22 02:35:01;;;;;;;13.45;8.02;;;8.20;99.90;;;;;;4883166;29;20057;-75
2024/01/22 02:37:27;;;;;;;13.50;7.82;;;8.20;99.90;;;;;;4866041;29;20049;-75
2024/01/22 02:39:53;;;;;;;12.82;7.03;;;8.20;99.90;;;;;;4866321;29;20053;-75
2024/01/22 02:42:18;;;;;;;13.77;6.65;;;8.20;99.90;;;;;;4866317;29;20609;-75
2024/01/22 02:44:45;;;;;;;10.02;6.85;;;8.30;99.90;;;;;;4866099;29;20056;-75
2024/01/22 02:47:11;;;;;;;15.00;6.82;;;8.40;99.90;;;;;;4866213;29;20080;-75
2024/01/22 02:49:37;;;;;;;10.93;7.05;;;8.40;99.90;;;;;;4867114;29;20385;-75
2024/01/22 02:52:03;;;;;;;16.45;7.13;;;8.40;99.90;;;;;;4865837;29;20544;-75
2024/01/22 02:54:31;;;;;;;11.75;7.25;;;8.40;99.90;;;;;;4865823;29;20049;-75
2024/01/22 02:56:56;;;;;;;13.07;6.90;;;8.40;99.90;;;;;;4865962;29;20173;-75
2024/01/22 02:59:22;;;;;;;10.25;6.50;;;8.40;99.90;;;;;;4866326;29;20105;-75
2024/01/22 03:01:48;;;;;;;13.32;6.38;;;8.50;99.90;;;;;;4865998;29;20164;-76
2024/01/22 03:04:13;;;;;;;15.60;7.80;;;8.50;99.90;;;;;;4865824;29;20114;-75
2024/01/22 03:06:39;;;;;;;12.70;7.07;;;8.50;99.90;;;;;;4865485;29;20055;-76
2024/01/22 03:09:06;;;;;;;12.15;8.18;;;8.40;99.90;;;;;;4865553;29;20060;-76
2024/01/22 03:11:31;;;;;;;11.20;5.93;;;8.50;99.90;;;;;;4865431;29;20382;-76
2024/01/22 03:13:57;;;;;;;12.10;7.32;;;8.40;99.90;;;;;;4865541;29;20525;-76
2024/01/22 03:16:22;;;;;;;13.25;6.78;;;8.40;99.90;;;;;;4865276;29;20048;-75
2024/01/22 03:18:49;;;;;;;13.65;8.13;;;8.40;99.90;;;;;;4865292;29;20045;-76
2024/01/22 03:21:14;;;;;;;10.52;6.53;;;8.40;99.90;;;;;;4865270;29;20053;-76
2024/01/22 03:23:43;;;;;;;16.65;6.85;;;8.40;99.90;;;;;;4865381;29;20056;-76
2024/01/22 03:26:17;;;;;;;8.20;4.93;;;8.40;99.90;;;;;;4865275;29;20056;-76
2024/01/22 03:28:42;;;;;;;7.97;5.03;;;8.50;99.90;;;;;;4865233;29;20136;-76
2024/01/22 03:31:08;;;;;;;11.50;6.28;;;8.40;99.90;;;;;;4865363;29;20123;-76
2024/01/22 03:33:33;;;;;;;9.30;5.55;;;8.50;99.90;;;;;;4864985;29;20481;-76
2024/01/22 03:35:59;;;;;;;14.38;5.85;;;8.50;99.90;;;;;;4865135;29;20135;-77
2024/01/22 03:38:25;;;;;;;8.35;4.68;;;8.50;99.90;;;;;;4864993;29;20060;-77
2024/01/22 03:40:50;;;;;;;10.45;6.47;;;8.50;99.90;;;;;;4865056;29;20524;-77
2024/01/22 03:43:16;;;;;;;9.85;5.07;;;8.60;99.90;;;;;;4865339;29;20053;-77
2024/01/22 03:45:41;;;;;;;11.18;5.45;;;8.60;99.90;;;;;;4864882;29;20377;-77
2024/01/22 03:48:07;;;;;;;11.38;5.30;;;8.60;99.90;;;;;;4865103;29;20084;-77
2024/01/22 03:50:33;;;;;;;12.90;5.75;;;8.60;99.90;;;;;;4864849;29;20400;-77
2024/01/22 03:52:58;;;;;;;7.72;4.97;;;8.60;99.90;;;;;;4864786;29;20048;-77
2024/01/22 03:55:24;;;;;;;8.95;4.38;;;8.60;99.90;;;;;;4865458;29;20046;-77
2024/01/22 03:57:49;;;;;;;10.18;5.05;;;8.60;99.90;;;;;;4864563;29;20140;-76
2024/01/22 04:00:15;;;;;;;8.35;5.20;;;8.70;99.90;;;;;;4864873;29;20133;-76
2024/01/22 04:02:41;;;;;;;10.68;4.60;;;8.80;99.90;;;;;;4864583;29;20480;-76
2024/01/22 04:05:07;;;;;;;8.18;4.13;;;8.80;99.90;;;;;;4864803;29;20045;-76
2024/01/22 04:07:36;;;;;;;6.97;4.75;;;8.80;99.90;;;;;;4864560;29;20049;-76
2024/01/22 04:10:03;;;;;;;7.97;4.20;;;8.90;99.90;;;;;;4864231;29;20060;-76
2024/01/22 04:12:29;;;;;;;6.47;4.35;;;8.90;99.90;;;;;;4864699;29;20057;-76
2024/01/22 04:14:55;;;;;;;6.55;4.32;;;8.80;99.90;;;;;;4864600;29;20370;-76
2024/01/22 04:17:20;;;;;;;6.72;3.83;;;8.80;99.90;;;;;;4881130;29;20163;-76
2024/01/22 04:19:46;;;;;;;5.95;3.75;;;8.90;99.90;;;;;;4864112;29;20060;-76
2024/01/22 04:22:11;;;;;;;5.75;3.80;;;8.90;99.90;;;;;;4864448;29;20053;-76
2024/01/22 04:24:37;;;;;;;7.72;4.20;;;8.90;99.90;;;;;;4864830;29;20504;-76
2024/01/22 04:27:03;;;;;;;7.05;3.47;;;8.90;99.90;;;;;;4864494;29;20045;-75
2024/01/22 04:29:28;;;;;;;8.50;4.00;;;9.00;99.90;;;;;;4864316;29;20057;-76
2024/01/22 04:31:54;;;;;;;6.72;3.08;;;9.00;99.90;;;;;;4864045;29;20045;-76
2024/01/22 04:34:20;;;;;;;7.65;3.78;;;9.00;99.90;;;;;;4864360;29;20061;-76
2024/01/22 04:36:45;;;;;;;5.07;3.17;;;9.00;99.90;;;;;;4863896;29;20064;-76
2024/01/22 04:39:11;;;;;;;10.02;3.55;;;9.00;99.90;;;;;;4864015;29;20096;-76
2024/01/22 04:41:36;;;;;;;6.30;3.58;;;9.00;99.90;;;;;;4864009;29;20049;-76
2024/01/22 04:44:02;;;;;;;7.95;3.67;;;9.00;99.90;;;;;;4863966;29;20056;-76
2024/01/22 04:46:28;;;;;;;4.57;3.35;;;9.00;99.90;;;;;;4863817;29;20104;-76
2024/01/22 04:48:53;;;;;;;4.50;2.95;;;9.00;99.90;;;;;;4863835;29;20109;-76
2024/01/22 04:51:19;;;;;;;6.53;3.08;;;9.00;99.90;;;;;;4863794;29;20095;-76
2024/01/22 04:53:44;;;;;;;4.55;2.65;;;9.10;99.90;;;;;;4863827;29;20092;-76
2024/01/22 04:56:10;;;;;;;5.38;2.92;;;9.10;99.90;;;;;;4863764;29;20051;-76
2024/01/22 04:58:36;;;;;;;5.40;2.75;;;9.10;99.90;;;;;;4863513;29;20136;-76
2024/01/22 05:01:01;;;;;;;4.57;3.00;;;9.10;99.90;;;;;;4863510;29;20047;-76
2024/01/22 05:03:33;;;;;;;5.63;2.75;;;9.10;99.90;;;;;;4880593;29;20041;-76
2024/01/22 05:05:59;;;;;;;4.72;2.45;;;9.10;99.90;;;;;;4863689;29;20049;-76
2024/01/22 05:08:24;;;;;;;5.03;3.50;;;9.10;99.90;;;;;;4864957;29;20075;-76
2024/01/22 05:10:50;;;;;;;5.45;2.67;;;9.10;99.90;;;;;;4863351;29;20409;-76
2024/01/22 05:13:15;;;;;;;3.80;2.30;;;9.20;99.90;;;;;;4863556;29;20136;-76
2024/01/22 05:15:41;;;;;;;3.95;2.45;;;9.20;99.90;;;;;;4863525;29;20108;-75
2024/01/22 05:18:06;;;;;;;4.82;2.05;;;9.10;99.90;;;;;;4863283;29;20413;-76
2024/01/22 05:20:32;;;;;;;3.63;2.55;;;9.10;99.90;;;;;;4880054;29;20045;-76
2024/01/22 05:22:58;;;;;;;4.30;1.90;;;9.10;99.90;;;;;;4863684;29;20136;-76
2024/01/22 05:25:23;;;;;;;2.95;1.75;;;9.10;99.90;;;;;;4863597;29;20059;-76
2024/01/22 05:27:49;;;;;;;4.57;1.92;;;9.10;99.90;;;;;;4863510;29;20053;-76
2024/01/22 05:30:14;;;;;;;3.08;2.05;;;9.10;99.90;;;;;;4863017;29;20052;-76
2024/01/22 05:32:40;;;;;;;7.10;2.65;;;9.10;99.90;;;;;;4863524;29;20580;-76
2024/01/22 05:35:06;;;;;;;7.25;2.83;;;9.10;99.90;;;;;;4863261;29;20162;-76
2024/01/22 05:37:32;;;;;;;5.40;2.92;;;9.10;99.90;;;;;;4863403;29;20063;-76
2024/01/22 05:39:57;;;;;;;4.75;2.55;;;9.10;99.90;;;;;;4863186;29;20489;-76
2024/01/22 05:42:23;;;;;;;5.38;3.15;;;9.10;99.90;;;;;;4863081;29;20476;-76
2024/01/22 05:44:49;;;;;;;5.82;3.60;;;9.00;99.90;;;;;;4879911;29;20056;-76
2024/01/22 05:47:14;;;;;;;6.43;3.42;;;9.00;99.90;;;;;;4863370;29;20057;-76
2024/01/22 05:49:41;;;;;;;6.45;3.70;;;8.90;99.90;;;;;;4862903;29;20512;-76
2024/01/22 05:52:07;;;;;;;6.47;3.70;;;8.90;99.90;;;;;;4863529;29;20053;-76
2024/01/22 05:54:32;;;;;;;6.05;3.13;;;8.90;99.90;;;;;;4863109;29;20401;-76
2024/01/22 05:56:58;;;;;;;4.90;3.10;;;9.00;99.90;;;;;;4863141;29;20101;-76
2024/01/22 05:59:24;;;;;;;5.65;2.92;;;9.00;99.90;;;;;;4863237;29;20053;-76
2024/01/22 06:01:49;;;;;;;5.45;3.30;;;9.00;99.90;;;;;;4879909;29;20057;-76
2024/01/22 06:04:15;;;;;;;6.53;3.58;;;9.00;99.90;;;;;;4862937;29;20405;-75
2024/01/22 06:06:41;;;;;;;6.63;3.42;;;8.90;99.90;;;;;;4863006;29;20057;-75
2024/01/22 06:09:07;;;;;;;8.55;2.97;;;9.00;99.90;;;;;;4862991;29;20063;-76
2024/01/22 06:11:34;;;;;;;7.55;3.20;;;9.00;99.90;;;;;;4862874;29;20067;-76
2024/01/22 06:14:00;;;;;;;12.13;3.08;;;9.00;99.90;;;;;;4863000;29;20433;-76
2024/01/22 06:16:25;;;;;;;11.85;2.97;;;9.10;99.90;;;;;;4879832;29;20078;-76
2024/01/22 06:18:51;;;;;;;17.38;2.88;;;9.10;99.90;;;;;;4862822;29;20073;-76
2024/01/22 06:21:16;;;;;;;11.25;3.08;;;9.20;99.90;;;;;;4863166;29;20056;-76
2024/01/22 06:23:42;;;;;;;10.80;2.85;;;9.30;99.90;;;;;;4863109;29;20045;-76
2024/01/22 06:26:09;;;;;;;15.40;3.40;;;9.30;99.90;;;;;;4862682;29;20045;-76
2024/01/22 06:28:35;;;;;;;10.70;2.80;;;9.30;99.90;;;;;;4862680;29;20073;-76
2024/01/22 06:31:03;;;;;;;10.52;2.53;;;9.40;99.90;;;;;;4879360;29;20049;-76
2024/01/22 06:33:29;;;;;;;14.65;3.10;;;9.40;99.90;;;;;;4863022;29;20100;-76
2024/01/22 06:35:55;;;;;;;15.27;3.30;;;9.40;99.90;;;;;;4862763;29;20040;-76
2024/01/22 06:38:21;;;;;;;14.82;3.08;;;9.40;99.90;;;;;;4862692;29;20052;-76
2024/01/22 06:40:47;;;;;;;15.43;3.15;;;9.40;99.90;;;;;;4862824;29;20044;-76
2024/01/22 06:43:13;;;;;;;23.85;3.17;;;9.40;99.90;;;;;;4865792;29;20057;-76
2024/01/22 06:45:39;;;;;;;19.38;3.30;;;9.40;99.90;;;;;;4866020;29;20049;-76
2024/01/22 06:48:05;;;;;;;21.23;4.43;;;9.40;99.90;;;;;;4866433;29;20112;-76
2024/01/22 06:50:31;;;;;;;20.25;3.60;;;9.40;99.90;;;;;;4865987;29;20096;-76
2024/01/22 06:52:57;;;;;;;31.65;3.97;;;9.40;99.90;;;;;;4865907;29;20116;-76
2024/01/22 06:55:23;;;;;;;22.02;4.25;;;9.40;99.90;;;;;;4882452;29;20055;-76
2024/01/22 06:57:49;;;;;;;22.20;3.83;;;9.50;99.90;;;;;;4865771;29;20080;-76
2024/01/22 07:00:15;;;;;;;26.05;4.60;;;9.50;99.90;;;;;;4865767;29;20084;-76
2024/01/22 07:02:43;;;;;;;25.63;4.75;;;9.40;99.90;;;;;;4865806;29;20481;-77
2024/01/22 07:05:10;;;;;;;32.75;4.07;;;9.40;99.90;;;;;;4865800;29;20113;-77
2024/01/22 07:07:37;;;;;;;29.30;4.60;;;9.40;99.90;;;;;;4865440;29;20052;-77
2024/01/22 07:10:08;;;;;;;27.95;4.38;;;9.40;99.90;;;;;;4882089;29;20093;-77
2024/01/22 07:12:34;;;;;;;28.52;7.57;;;9.40;99.90;;;;;;4882275;29;20061;-77
2024/01/22 07:15:04;;;;;;;28.90;5.03;;;9.50;99.90;;;;;;4865331;29;20060;-77
2024/01/22 07:17:30;;;;;;;29.30;7.03;;;9.40;99.90;;;;;;4865413;29;20536;-77
2024/01/22 07:19:56;;;;;;;27.73;4.57;;;9.40;99.90;;;;;;4882187;29;20041;-77
2024/01/22 07:22:22;;;;;;;35.22;4.47;;;9.40;99.90;;;;;;4865274;29;20508;-77
2024/01/22 07:24:47;;;;;;;26.52;5.55;;;9.30;99.90;;;;;;4882006;29;20053;-77
2024/01/22 07:27:13;;;;;;;29.42;5.97;;;9.40;99.90;;;;;;4865329;29;20053;-76
2024/01/22 07:29:39;;;;;;;30.30;5.43;;;9.30;99.90;;;;;;4882068;29;20041;-77
2024/01/22 07:32:05;;;;;;;32.53;5.60;;;9.30;99.90;;;;;;4881982;29;20064;-77
2024/01/22 07:34:31;;;;;;;31.45;5.55;;;9.30;99.90;;;;;;4865180;29;20061;-77
2024/01/22 07:36:56;;;;;;;32.78;6.70;;;9.30;99.90;;;;;;4865185;29;20053;-77
2024/01/22 07:39:25;;;;;;;30.15;5.75;;;9.30;99.90;;;;;;4864958;29;20437;-77
2024/01/22 07:41:50;;;;;;;37.60;6.93;;;9.30;99.90;;;;;;4864831;29;20052;-77
2024/01/22 07:44:16;;;;;;;33.65;5.32;;;9.30;99.90;;;;;;4864991;29;20049;-77
2024/01/22 07:46:41;;;;;;;28.98;6.75;;;9.30;99.90;;;;;;4864081;29;20140;-76
2024/01/22 07:49:07;;;;;;;37.88;7.30;;;9.20;99.90;;;;;;4864500;29;20049;-76
2024/01/22 07:51:34;;;;;;;39.42;6.18;;;9.20;99.90;;;;;;4864992;29;20061;-76
2024/01/22 07:54:05;;;;;;;32.47;6.88;;;9.20;99.90;;;;;;4864000;29;20075;-76
2024/01/22 07:56:31;;;;;;;32.65;5.10;;;9.20;99.90;;;;;;4859967;29;20052;-78
2024/01/22 07:58:57;;;;;;;29.75;4.60;;;9.20;99.90;;;;;;4853901;29;20060;-74
2024/01/22 08:01:23;;;;;;;30.27;4.60;;;9.20;99.90;;;;;;4846111;29;20057;-74
2024/01/22 08:03:48;;;;;;;42.17;5.38;;;9.10;99.90;;;;;;4845645;29;20053;-75
2024/01/22 08:06:14;;;;;;;22.75;4.55;;;9.10;99.90;;;;;;4845913;29;20059;-75
2024/01/22 08:08:42;;;;;;;27.00;4.20;;;9.10;99.90;;;;;;4845807;29;20049;-75
2024/01/22 08:11:07;;;;;;;20.52;3.67;;;9.00;99.90;;;;;;4862332;29;20058;-75
2024/01/22 08:13:33;;;;;;;26.08;6.22;;;9.00;99.90;;;;;;4845639;29;20045;-75
2024/01/22 08:16:00;;;;;;;22.85;4.45;;;9.00;99.90;;;;;;4845852;29;20086;-75
2024/01/22 08:18:25;;;;;;;18.70;3.67;;;8.90;99.90;;;;;;4845398;29;20512;-75
2024/01/22 08:20:51;;;;;;;22.23;3.50;;;9.00;99.90;;;;;;4845831;29;20053;-75
2024/01/22 08:23:17;;;;;;;21.95;3.80;;;8.90;99.90;;;;;;4845485;29;20056;-75
2024/01/22 08:25:43;;;;;;;25.30;4.45;;;8.80;99.90;;;;;;4845469;29;20486;-74
2024/01/22 08:28:09;;;;;;;25.02;3.63;;;8.80;99.90;;;;;;4845529;29;20464;-74
2024/01/22 08:30:34;;;;;;;27.58;5.75;;;8.70;99.90;;;;;;4845319;29;20073;-74
2024/01/22 08:33:00;;;;;;;23.52;3.97;;;8.60;99.90;;;;;;4845158;29;20053;-74
2024/01/22 08:35:26;;;;;;;27.52;4.82;;;8.70;99.90;;;;;;4845251;29;20041;-74
2024/01/22 08:37:52;;;;;;;33.13;5.38;;;8.60;99.90;;;;;;4845120;29;20060;-74
2024/01/22 08:40:22;;;;;;;28.63;4.63;;;8.60;99.90;;;;;;4845180;29;20049;-75
2024/01/22 08:42:50;;;;;;;30.20;4.90;;;8.50;99.90;;;;;;4845349;29;20053;-75
2024/01/22 08:45:16;;;;;;;26.73;5.57;;;8.50;99.90;;;;;;4861547;29;20049;-75
2024/01/22 08:47:44;;;;;;;26.20;6.53;;;8.50;99.90;;;;;;4845063;29;20517;-75
2024/01/22 08:50:11;;;;;;;32.47;6.18;;;8.40;99.90;;;;;;4845043;29;20065;-75
2024/01/22 08:52:37;;;;;;;36.10;5.57;;;8.40;99.90;;;;;;4844936;29;20084;-74
2024/01/22 08:55:05;;;;;;;29.35;5.30;;;8.40;99.90;;;;;;4844841;29;20046;-75
2024/01/22 08:57:31;;;;;;;35.83;5.47;;;8.40;99.90;;;;;;4844997;29;20049;-75
2024/01/22 08:59:57;;;;;;;24.92;5.15;;;8.40;99.90;;;;;;4845015;29;20513;-75
2024/01/22 09:02:23;;;;;;;40.08;6.85;;;8.40;99.90;;;;;;4844825;29;20041;-75
2024/01/22 09:04:48;;;;;;;28.90;6.88;;;8.40;99.90;;;;;;4861421;29;20045;-75
2024/01/22 09:07:14;;;;;;;31.77;5.30;;;8.40;99.90;;;;;;4844789;29;20056;-75
2024/01/22 09:09:41;;;;;;;31.38;5.85;;;8.50;99.90;;;;;;4844815;29;20600;-75
2024/01/22 09:12:09;;;;;;;32.55;5.75;;;8.60;99.90;;;;;;4844808;29;20092;-75
2024/01/22 09:14:35;;;;;;;34.75;5.90;;;8.60;99.90;;;;;;4855224;29;20045;-75
2024/01/22 09:17:01;;;;;;;31.83;7.20;;;8.60;99.90;;;;;;4870107;29;20512;-75
2024/01/22 09:19:27;;;;;;;28.98;6.15;;;8.60;99.90;;;;;;4863294;29;20056;-75
2024/01/22 09:21:53;;;;;;;41.90;7.82;;;8.70;99.90;;;;;;4879670;29;20533;-76
2024/01/22 09:24:19;;;;;;;39.85;6.72;;;8.70;99.90;;;;;;4894059;29;20132;-75
2024/01/22 09:26:45;;;;;;;36.33;6.78;;;8.60;99.90;;;;;;4862942;29;20049;-75
2024/01/22 09:29:11;;;;;;;47.25;7.88;;;8.70;99.90;;;;;;4862816;29;20059;-76
2024/01/22 09:31:36;;;;;;;46.10;7.65;;;8.70;99.90;;;;;;4862872;29;20049;-75
2024/01/22 09:34:04;;;;;;;49.60;8.48;;;8.70;99.90;;;;;;4879493;29;20048;-76
2024/01/22 09:36:33;;;;;;;39.85;8.15;;;8.80;99.90;;;;;;4862994;29;20072;-76
2024/01/22 09:38:59;;;;;;;45.08;7.85;;;8.80;99.90;;;;;;4862757;29;20057;-76
2024/01/22 09:41:25;;;;;;;49.38;8.43;;;8.80;99.90;;;;;;4863058;29;20072;-76
2024/01/22 09:43:52;;;;;;;39.90;8.10;;;8.90;99.90;;;;;;4865349;29;20892;-75
2024/01/22 09:46:18;;;;;;;46.13;9.88;;;8.80;99.90;;;;;;4872432;29;20049;-75
2024/01/22 09:48:44;;;;;;;38.90;6.82;;;8.90;99.90;;;;;;4879419;29;20056;-75
2024/01/22 09:51:10;;;;;;;43.88;7.13;;;8.90;99.90;;;;;;4863048;29;20045;-77
2024/01/22 09:53:37;;;;;;;36.70;7.07;;;9.00;99.90;;;;;;4862680;29;20057;-77
2024/01/22 09:56:04;;;;;;;34.35;7.07;;;8.90;99.90;;;;;;4893794;29;20099;-77
2024/01/22 09:58:34;;;;;;;39.63;7.13;;;8.90;99.90;;;;;;4879259;29;20053;-78
2024/01/22 10:01:02;;;;;;;32.33;5.85;;;8.90;99.90;;;;;;4893849;29;20059;-77
2024/01/22 10:03:32;;;;;;;36.55;6.70;;;9.00;99.90;;;;;;4895602;29;20496;-77
2024/01/22 10:05:59;;;;;;;37.95;6.47;;;9.00;99.90;;;;;;4876641;29;20051;-77
2024/01/22 10:08:25;;;;;;;43.50;6.85;;;9.10;99.90;;;;;;4876879;29;20044;-77
2024/01/22 10:10:51;;;;;;;37.60;6.68;;;9.10;99.90;;;;;;4876838;29;20079;-77
2024/01/22 10:13:20;;;;;;;39.95;7.20;;;9.20;99.90;;;;;;4881025;29;20408;-77
2024/01/22 10:15:46;;;;;;;43.03;6.65;;;9.20;99.90;;;;;;4880579;29;20120;-77
2024/01/22 10:18:16;;;;;;;33.28;5.55;;;9.30;99.90;;;;;;4891161;29;20049;-77
2024/01/22 10:20:44;;;;;;;32.13;5.43;;;9.30;99.90;;;;;;4884967;29;20056;-77
2024/01/22 10:23:11;;;;;;;32.70;6.22;;;9.20;99.90;;;;;;4884571;29;20076;-76
2024/01/22 10:25:38;;;;;;;22.10;4.38;;;9.30;99.90;;;;;;4884585;29;20460;-76
2024/01/22 10:28:21;;;;;;;30.17;4.22;;;9.30;99.90;;;;;;4901461;29;20100;-76
2024/01/22 10:31:02;;;;;;;22.25;4.55;;;9.40;99.90;;;;;;4880215;29;20077;-77
2024/01/22 10:33:28;;;;;;;23.95;4.38;;;9.40;99.90;;;;;;4862475;29;20394;-77
2024/01/22 10:35:53;;;;;;;18.08;3.42;;;9.40;99.90;;;;;;4861497;29;20478;-77
2024/01/22 10:38:19;;;;;;;26.45;4.45;;;9.40;99.90;;;;;;4861696;29;20080;-77
2024/01/22 10:40:46;;;;;;;26.35;3.65;;;9.50;99.90;;;;;;4861975;29;20574;-78
2024/01/22 10:43:19;;;;;;;22.60;6.10;;;9.50;99.90;;;;;;4861583;29;20056;-78
2024/01/22 10:45:49;;;;;;;27.58;3.78;;;9.40;99.90;;;;;;4861205;29;20052;-79
2024/01/22 10:48:20;;;;;;;26.38;4.15;;;9.40;99.90;;;;;;4861158;29;20072;-78
2024/01/22 10:50:46;;;;;;;18.40;3.35;;;9.40;99.90;;;;;;4877935;29;20056;-78
2024/01/22 10:53:11;;;;;;;16.65;3.28;;;9.40;99.90;;;;;;4862097;29;20401;-79
2024/01/22 10:55:38;;;;;;;17.25;4.05;;;9.30;99.90;;;;;;4878010;29;20104;-78
2024/01/22 10:58:13;;;;;;;15.02;3.58;;;9.30;99.90;;;;;;4877977;29;20123;-79
2024/01/22 11:00:43;;;;;;;18.67;3.03;;;9.30;99.90;;;;;;4861177;29;20082;-77
2024/01/22 11:03:12;;;;;;;22.73;3.92;;;9.40;99.90;;;;;;4861501;29;20077;-77
2024/01/22 11:05:44;;;;;;;20.02;3.95;;;9.40;99.90;;;;;;4863004;29;20049;-78
2024/01/22 11:08:13;;;;;;;19.63;3.00;;;9.40;99.90;;;;;;4861535;29;20124;-77
2024/01/22 11:10:43;;;;;;;23.15;4.32;;;9.40;99.90;;;;;;4860605;29;20513;-77
2024/01/22 11:13:10;;;;;;;22.67;3.47;;;9.50;99.90;;;;;;4877606;29;20053;-79
2024/01/22 11:15:36;;;;;;;25.40;4.30;;;9.60;99.90;;;;;;4861383;29;20048;-78
2024/01/22 11:18:01;;;;;;;24.38;4.20;;;9.60;99.90;;;;;;4861007;29;20068;-77
2024/01/22 11:20:27;;;;;;;22.60;4.65;;;9.70;99.90;;;;;;4860983;29;20049;-78
2024/01/22 11:23:00;;;;;;;21.92;4.47;;;9.70;99.90;;;;;;4859251;29;20084;-76
2024/01/22 11:25:26;;;;;;;22.48;4.35;;;9.60;99.90;;;;;;4861426;29;20063;-77
2024/01/22 11:28:01;;;;;;;21.15;4.03;;;9.60;99.90;;;;;;4859234;29;20052;-78
2024/01/22 11:30:28;;;;;;;23.50;4.10;;;9.60;99.90;;;;;;4860916;29;20088;-78
2024/01/22 11:32:54;;;;;;;17.75;3.63;;;9.60;99.90;;;;;;4860680;29;20128;-77
2024/01/22 11:35:37;;;;;;;20.77;4.45;;;9.60;99.90;;;;;;4877761;29;20474;-77
2024/01/22 11:38:04;;;;;;;20.50;3.65;;;9.60;99.90;;;;;;4862815;29;20057;-77
2024/01/22 11:40:50;;;;;;;21.10;3.88;;;9.70;99.90;;;;;;4864909;29;20084;-77
2024/01/22 11:43:19;;;;;;;24.02;4.97;;;9.60;99.90;;;;;;4864539;29;20055;-76
2024/01/22 11:45:48;;;;;;;22.48;4.32;;;9.70;99.90;;;;;;4864849;29;20091;-77
2024/01/22 11:48:16;;;;;;;22.00;4.53;;;9.70;99.90;;;;;;4864614;29;20088;-76
2024/01/22 11:50:42;;;;;;;22.98;4.07;;;9.70;99.90;;;;;;4864496;29;20056;-77
2024/01/22 11:53:08;;;;;;;21.67;4.22;;;9.70;99.90;;;;;;4881505;29;20053;-77
2024/01/22 11:55:34;;;;;;;17.92;3.25;;;9.70;99.90;;;;;;4864722;29;20052;-77
2024/01/22 11:57:59;;;;;;;23.80;4.40;;;9.70;99.90;;;;;;4864244;29;20588;-76
2024/01/22 12:00:25;;;;;;;19.70;3.83;;;9.70;99.90;;;;;;4864307;29;20049;-76
2024/01/22 12:02:55;;;;;;;17.35;4.88;;;9.60;99.90;;;;;;4864544;29;20064;-77
2024/01/22 12:05:20;;;;;;;19.38;3.67;;;9.50;99.90;;;;;;4864178;29;20453;-76
2024/01/22 12:07:53;;;;;;;21.52;4.43;;;9.50;99.90;;;;;;4864479;29;20490;-76
2024/01/22 12:10:22;;;;;;;20.33;4.65;;;9.50;99.90;;;;;;4864002;29;20454;-77
2024/01/22 12:12:58;;;;;;;24.90;3.67;;;9.50;99.90;;;;;;4864081;29;20049;-76
2024/01/22 12:15:26;;;;;;;16.15;3.28;;;9.50;99.90;;;;;;4864127;29;20053;-77
2024/01/22 12:17:53;;;;;;;18.17;3.83;;;9.50;99.90;;;;;;4863939;29;20061;-77
2024/01/22 12:20:22;;;;;;;16.27;3.47;;;9.40;99.90;;;;;;4863964;29;20049;-76
2024/01/22 12:23:01;;;;;;;17.10;4.07;;;9.50;99.90;;;;;;4863913;29;20049;-77
2024/01/22 12:25:38;;;;;;;18.08;2.88;;;9.50;99.90;;;;;;4863977;29;20434;-77
2024/01/22 12:28:11;;;;;;;23.55;3.33;;;9.50;99.90;;;;;;4880739;29;20055;-77
2024/01/22 12:30:38;;;;;;;23.55;4.80;;;9.50;99.90;;;;;;4863666;29;20675;-77
2024/01/22 12:33:04;;;;;;;20.00;4.00;;;9.50;99.90;;;;;;4863733;29;20057;-77
2024/01/22 12:35:29;;;;;;;23.15;4.55;;;9.50;99.90;;;;;;4863770;29;20043;-77
2024/01/22 12:37:58;;;;;;;25.17;5.63;;;9.50;99.90;;;;;;4865233;29;20048;-77
2024/01/22 12:40:24;;;;;;;15.73;4.47;;;9.50;99.90;;;;;;4871047;29;20045;-78
2024/01/22 12:42:51;;;;;;;16.02;3.38;;;9.40;99.90;;;;;;4863343;29;20077;-77
2024/01/22 12:45:21;;;;;;;25.27;4.05;;;9.50;99.90;;;;;;4894593;29;20060;-77